createdAt,value
2022-12-17T00:00:00.634Z,-0.32
2022-12-17T00:02:46.078Z,-0.38
2022-12-17T00:05:31.394Z,-0.42
2022-12-17T00:08:17.422Z,-0.45
2022-12-17T00:11:02.635Z,-0.40
2022-12-17T00:13:48.877Z,-0.41
2022-12-17T00:16:34.554Z,-0.46
2022-12-17T00:19:19.519Z,-0.46
2022-12-17T00:22:04.415Z,-0.48
2022-12-17T00:24:49.397Z,-0.47
2022-12-17T00:27:34.521Z,-0.45
2022-12-17T00:30:19.730Z,-0.43
2022-12-17T00:33:04.882Z,-0.36
2022-12-17T00:35:49.759Z,-0.29
2022-12-17T00:38:35.221Z,-0.33
2022-12-17T00:41:20.613Z,-0.41
2022-12-17T00:44:05.459Z,-0.43
2022-12-17T00:46:50.567Z,-0.44
2022-12-17T00:49:35.633Z,-0.44
2022-12-17T00:52:23.644Z,-0.41
2022-12-17T00:55:08.600Z,-0.44
2022-12-17T00:57:53.498Z,-0.47
2022-12-17T01:00:38.539Z,-0.51
2022-12-17T01:03:28.221Z,-0.47
2022-12-17T01:06:13.655Z,-0.43
2022-12-17T01:08:59.063Z,-0.43
2022-12-17T01:11:44.036Z,-0.41
2022-12-17T01:14:28.923Z,-0.43
2022-12-17T01:17:14.120Z,-0.48
2022-12-17T01:19:59.000Z,-0.51
2022-12-17T01:22:43.913Z,-0.42
2022-12-17T01:25:29.160Z,-0.47
2022-12-17T01:28:14.239Z,-0.39
2022-12-17T01:30:59.336Z,-0.39
2022-12-17T01:33:44.301Z,-0.45
2022-12-17T01:36:29.517Z,-0.49
2022-12-17T01:39:14.421Z,-0.45
2022-12-17T01:41:59.887Z,-0.40
2022-12-17T01:45:03.797Z,-0.37
2022-12-17T01:47:52.649Z,-0.42
2022-12-17T01:50:42.852Z,-0.43
2022-12-17T01:53:28.408Z,-0.48
2022-12-17T01:56:13.557Z,-0.48
2022-12-17T01:58:59.251Z,-0.41
2022-12-17T02:01:44.719Z,-0.40
2022-12-17T02:04:30.036Z,-0.42
2022-12-17T02:07:26.217Z,-0.40
2022-12-17T02:10:22.916Z,-0.43
2022-12-17T02:13:11.557Z,-0.45
2022-12-17T02:16:03.251Z,-0.45
2022-12-17T02:18:51.731Z,-0.46
2022-12-17T02:21:38.421Z,-0.39
2022-12-17T02:25:08.661Z,-0.45
2022-12-17T02:27:54.373Z,-0.37
2022-12-17T02:30:39.768Z,-0.38
2022-12-17T02:33:25.712Z,-0.42
2022-12-17T02:36:17.719Z,-0.41
2022-12-17T02:39:02.594Z,-0.44
2022-12-17T02:41:48.596Z,-0.43
2022-12-17T02:44:34.486Z,-0.45
2022-12-17T02:47:21.693Z,-0.39
2022-12-17T02:50:06.913Z,-0.45
2022-12-17T02:52:52.461Z,-0.38
2022-12-17T02:55:37.450Z,-0.43
2022-12-17T02:58:22.279Z,-0.50
2022-12-17T03:01:07.604Z,-0.49
2022-12-17T03:03:52.531Z,-0.49
2022-12-17T03:06:37.408Z,-0.53
2022-12-17T03:09:22.276Z,-0.50
2022-12-17T03:12:07.192Z,-0.56
2022-12-17T03:14:52.335Z,-0.54
2022-12-17T03:17:37.238Z,-0.54
2022-12-17T03:20:22.486Z,-0.49
2022-12-17T03:23:07.244Z,-0.47
2022-12-17T03:25:52.374Z,-0.43
2022-12-17T03:28:37.321Z,-0.44
2022-12-17T03:31:22.286Z,-0.36
2022-12-17T03:34:07.210Z,-0.41
2022-12-17T03:36:52.250Z,-0.40
2022-12-17T03:39:37.129Z,-0.45
2022-12-17T03:42:22.035Z,-0.51
2022-12-17T03:45:07.091Z,-0.49
2022-12-17T03:47:52.050Z,-0.44
2022-12-17T03:50:56.888Z,-0.40
2022-12-17T03:53:42.127Z,-0.35
2022-12-17T03:56:27.454Z,-0.36
2022-12-17T03:59:12.522Z,-0.38
2022-12-17T04:01:57.444Z,-0.39
2022-12-17T04:04:42.836Z,-0.44
2022-12-17T04:07:27.818Z,-0.42
2022-12-17T04:10:12.717Z,-0.43
2022-12-17T04:12:57.795Z,-0.40
2022-12-17T04:15:42.747Z,-0.39
2022-12-17T04:18:27.849Z,-0.40
2022-12-17T04:21:12.992Z,-0.42
2022-12-17T04:23:57.972Z,-0.40
2022-12-17T04:26:43.119Z,-0.36
2022-12-17T04:29:47.831Z,-0.36
2022-12-17T04:32:35.398Z,-0.35
2022-12-17T04:35:20.762Z,-0.36
2022-12-17T04:38:06.196Z,-0.37
2022-12-17T04:40:51.043Z,-0.37
2022-12-17T04:43:36.312Z,-0.35
2022-12-17T04:46:21.653Z,-0.36
2022-12-17T04:49:06.651Z,-0.22
2022-12-17T04:51:51.712Z,-0.23
2022-12-17T04:54:36.661Z,-0.31
2022-12-17T04:57:21.981Z,-0.33
2022-12-17T05:00:07.195Z,-0.40
2022-12-17T05:02:52.277Z,-0.37
2022-12-17T05:05:37.357Z,-0.36
2022-12-17T05:08:22.767Z,-0.38
2022-12-17T05:11:07.967Z,-0.38
2022-12-17T05:13:53.000Z,-0.37
2022-12-17T05:16:37.815Z,-0.36
2022-12-17T05:19:22.849Z,-0.35
2022-12-17T05:22:07.720Z,-0.28
2022-12-17T05:24:52.720Z,-0.31
2022-12-17T05:27:37.967Z,-0.33
2022-12-17T05:30:23.406Z,-0.34
2022-12-17T05:33:16.375Z,-0.37
2022-12-17T05:36:01.334Z,-0.37
2022-12-17T05:38:46.396Z,-0.35
2022-12-17T05:41:31.300Z,-0.38
2022-12-17T05:44:16.208Z,-0.40
2022-12-17T05:47:01.285Z,-0.45
2022-12-17T05:49:46.248Z,-0.43
2022-12-17T05:52:31.168Z,-0.43
2022-12-17T05:55:16.249Z,-0.37
2022-12-17T05:58:01.081Z,-0.36
2022-12-17T06:00:46.373Z,-0.40
2022-12-17T06:03:31.375Z,-0.42
2022-12-17T06:06:16.400Z,-0.45
2022-12-17T06:09:01.431Z,-0.45
2022-12-17T06:11:46.352Z,-0.45
2022-12-17T06:14:48.193Z,-0.39
2022-12-17T06:17:33.330Z,-0.39
2022-12-17T06:20:18.395Z,-0.46
2022-12-17T06:23:03.436Z,-0.45
2022-12-17T06:25:48.522Z,-0.41
2022-12-17T06:28:33.450Z,-0.42
2022-12-17T06:31:18.582Z,-0.46
2022-12-17T06:34:03.572Z,-0.43
2022-12-17T06:36:48.689Z,-0.45
2022-12-17T06:39:33.571Z,-0.42
2022-12-17T06:42:18.798Z,-0.38
2022-12-17T06:45:03.780Z,-0.38
2022-12-17T06:47:48.677Z,-0.40
2022-12-17T06:50:33.649Z,-0.39
2022-12-17T06:53:19.741Z,-0.43
2022-12-17T06:56:04.820Z,-0.39
2022-12-17T06:58:49.871Z,-0.39
2022-12-17T07:01:35.030Z,-0.43
2022-12-17T07:04:20.488Z,-0.40
2022-12-17T07:07:05.454Z,-0.33
2022-12-17T07:09:50.553Z,-0.38
2022-12-17T07:12:35.476Z,-0.38
2022-12-17T07:15:20.570Z,-0.34
2022-12-17T07:18:15.805Z,-0.37
2022-12-17T07:21:01.392Z,-0.30
2022-12-17T07:23:46.774Z,-0.29
2022-12-17T07:26:32.318Z,-0.29
2022-12-17T07:29:17.319Z,-0.29
2022-12-17T07:32:02.439Z,-0.29
2022-12-17T07:34:47.698Z,-0.30
2022-12-17T07:37:32.673Z,-0.26
2022-12-17T07:40:17.723Z,-0.21
2022-12-17T07:43:02.651Z,-0.26
2022-12-17T07:45:48.104Z,-0.25
2022-12-17T07:48:33.166Z,-0.24
2022-12-17T07:51:18.401Z,-0.24
2022-12-17T07:54:04.008Z,-0.18
2022-12-17T07:56:48.992Z,-0.21
2022-12-17T07:59:37.077Z,-0.22
2022-12-17T08:02:22.198Z,-0.20
2022-12-17T08:05:07.495Z,-0.23
2022-12-17T08:07:52.733Z,-0.20
2022-12-17T08:10:54.727Z,-0.22
2022-12-17T08:13:39.877Z,-0.24
2022-12-17T08:16:25.395Z,-0.23
2022-12-17T08:19:10.570Z,-0.23
2022-12-17T08:21:55.461Z,-0.20
2022-12-17T08:24:40.277Z,-0.19
2022-12-17T08:27:25.488Z,-0.15
2022-12-17T08:30:10.631Z,-0.15
2022-12-17T08:32:55.600Z,-0.22
2022-12-17T08:35:40.481Z,-0.26
2022-12-17T08:38:25.886Z,-0.23
2022-12-17T08:41:10.816Z,-0.20
2022-12-17T08:43:55.930Z,-0.23
2022-12-17T08:46:40.855Z,-0.19
2022-12-17T08:49:26.056Z,-0.19
2022-12-17T08:52:11.078Z,-0.15
2022-12-17T08:54:56.097Z,-0.17
2022-12-17T08:57:51.632Z,-0.13
2022-12-17T09:00:36.522Z,-0.15
2022-12-17T09:03:22.047Z,-0.21
2022-12-17T09:06:07.437Z,-0.19
2022-12-17T09:08:52.737Z,-0.21
2022-12-17T09:11:38.351Z,-0.23
2022-12-17T09:14:23.292Z,-0.18
2022-12-17T09:17:08.316Z,-0.13
2022-12-17T09:19:53.358Z,-0.11
2022-12-17T09:22:38.376Z,-0.08
2022-12-17T09:25:23.688Z,-0.06
2022-12-17T09:28:08.979Z,-0.02
2022-12-17T09:30:54.017Z,0.06
2022-12-17T09:33:39.212Z,0.09
2022-12-17T09:36:24.874Z,0.12
2022-12-17T09:39:09.672Z,0.12
2022-12-17T09:42:11.414Z,0.06
2022-12-17T09:44:56.197Z,0.03
2022-12-17T09:48:00.246Z,0.10
2022-12-17T09:50:45.852Z,0.07
2022-12-17T09:53:54.074Z,0.08
2022-12-17T09:56:41.124Z,0.20
2022-12-17T09:59:39.152Z,0.13
2022-12-17T10:02:31.106Z,0.19
2022-12-17T10:05:17.520Z,0.23
2022-12-17T10:08:03.408Z,0.16
2022-12-17T10:10:50.319Z,0.12
2022-12-17T10:13:37.346Z,0.19
2022-12-17T10:16:43.135Z,0.24
2022-12-17T10:19:54.395Z,0.19
2022-12-17T10:22:39.719Z,0.14
2022-12-17T10:25:25.754Z,0.16
2022-12-17T10:28:10.941Z,0.32
2022-12-17T10:30:56.284Z,0.29
2022-12-17T10:33:41.374Z,0.39
2022-12-17T10:36:40.323Z,0.49
2022-12-17T10:39:25.817Z,0.42
2022-12-17T10:42:10.636Z,0.41
2022-12-17T10:44:56.572Z,0.41
2022-12-17T10:47:43.010Z,0.47
2022-12-17T10:50:32.487Z,0.59
2022-12-17T10:53:18.058Z,0.62
2022-12-17T10:56:07.399Z,0.64
2022-12-17T10:58:52.841Z,0.57
2022-12-17T11:01:39.922Z,0.52
2022-12-17T11:04:41.652Z,0.62
2022-12-17T11:07:28.736Z,0.66
2022-12-17T11:10:16.198Z,0.75
2022-12-17T11:13:03.198Z,0.76
2022-12-17T11:15:57.059Z,0.74
2022-12-17T11:18:45.171Z,0.78
2022-12-17T11:21:39.794Z,0.77
2022-12-17T11:24:30.820Z,0.72
2022-12-17T11:27:17.174Z,0.70
2022-12-17T11:30:02.322Z,0.59
2022-12-17T11:32:50.459Z,0.50
2022-12-17T11:35:48.878Z,0.43
2022-12-17T11:38:49.121Z,0.34
2022-12-17T11:41:38.162Z,0.30
2022-12-17T11:44:34.128Z,0.24
2022-12-17T11:47:59.002Z,0.28
2022-12-17T11:50:56.734Z,0.32
2022-12-17T11:53:44.892Z,0.24
2022-12-17T11:56:40.515Z,0.14
2022-12-17T11:59:28.421Z,0.15
2022-12-17T12:02:39.342Z,0.04
2022-12-17T12:05:30.500Z,-0.06
2022-12-17T12:08:21.411Z,-0.05
2022-12-17T12:11:14.473Z,-0.14
2022-12-17T12:14:06.410Z,-0.20
2022-12-17T12:17:02.471Z,-0.24
2022-12-17T12:20:06.292Z,-0.30
2022-12-17T12:23:06.123Z,-0.30
2022-12-17T12:25:54.332Z,-0.31
2022-12-17T12:29:11.735Z,-0.38
2022-12-17T12:32:05.891Z,-0.39
2022-12-17T12:35:06.751Z,-0.30
2022-12-17T12:37:53.779Z,-0.36
2022-12-17T12:40:55.159Z,-0.37
2022-12-17T12:43:42.078Z,-0.40
2022-12-17T12:46:33.560Z,-0.45
2022-12-17T12:49:24.841Z,-0.48
2022-12-17T12:52:11.757Z,-0.46
2022-12-17T12:55:06.082Z,-0.45
2022-12-17T12:57:55.597Z,-0.45
2022-12-17T13:00:42.140Z,-0.42
2022-12-17T13:03:39.397Z,-0.49
2022-12-17T13:06:06.471Z,-0.54
2022-12-17T13:08:33.045Z,-0.57
2022-12-17T13:11:09.316Z,-0.60
2022-12-17T13:13:39.727Z,-0.63
2022-12-17T13:16:28.934Z,-0.64
2022-12-17T13:19:17.256Z,-0.70
2022-12-17T13:21:43.896Z,-0.77
2022-12-17T13:24:11.601Z,-0.78
2022-12-17T13:26:41.402Z,-0.79
2022-12-17T13:29:13.421Z,-0.81
2022-12-17T13:32:06.155Z,-0.80
2022-12-17T13:34:35.734Z,-0.82
2022-12-17T13:37:02.254Z,-0.88
2022-12-17T13:39:38.038Z,-0.90
2022-12-17T13:42:04.760Z,-0.94
2022-12-17T13:44:36.327Z,-0.91
2022-12-17T13:47:03.032Z,-0.96
2022-12-17T13:49:30.410Z,-0.96
2022-12-17T13:52:00.687Z,-1.02
2022-12-17T13:54:27.300Z,-1.08
2022-12-17T13:56:54.771Z,-1.09
2022-12-17T13:59:24.056Z,-1.06
2022-12-17T14:01:54.672Z,-1.10
2022-12-17T14:04:23.147Z,-1.15
2022-12-17T14:06:50.198Z,-1.21
2022-12-17T14:09:18.397Z,-1.22
2022-12-17T14:12:03.834Z,-1.21
2022-12-17T14:14:49.855Z,-1.27
2022-12-17T14:17:21.692Z,-1.32
2022-12-17T14:19:57.236Z,-1.29
2022-12-17T14:22:37.817Z,-1.30
2022-12-17T14:25:05.723Z,-1.26
2022-12-17T14:27:34.318Z,-1.32
2022-12-17T14:30:01.491Z,-1.39
2022-12-17T14:32:35.760Z,-1.45
2022-12-17T14:35:03.021Z,-1.47
2022-12-17T14:37:30.200Z,-1.48
2022-12-17T14:40:00.399Z,-1.47
2022-12-17T14:42:29.325Z,-1.51
2022-12-17T14:44:55.911Z,-1.47
2022-12-17T14:47:27.089Z,-1.49
2022-12-17T14:50:06.240Z,-1.58
2022-12-17T14:52:37.681Z,-1.64
2022-12-17T14:55:22.525Z,-1.65
2022-12-17T14:57:49.578Z,-1.77
2022-12-17T15:00:16.256Z,-1.72
2022-12-17T15:02:50.512Z,-1.70
2022-12-17T15:05:17.623Z,-1.84
2022-12-17T15:07:44.326Z,-1.89
2022-12-17T15:10:12.717Z,-1.89
2022-12-17T15:12:40.678Z,-2.01
2022-12-17T15:15:07.640Z,-2.06
2022-12-17T15:17:34.206Z,-2.03
2022-12-17T15:20:00.836Z,-2.21
2022-12-17T15:22:27.593Z,-2.28
2022-12-17T15:24:54.138Z,-2.29
2022-12-17T15:27:20.662Z,-2.25
2022-12-17T15:29:47.518Z,-2.27
2022-12-17T15:32:18.836Z,-2.28
2022-12-17T15:34:45.640Z,-2.29
2022-12-17T15:37:12.281Z,-2.39
2022-12-17T15:39:38.819Z,-2.42
2022-12-17T15:42:23.850Z,-2.43
2022-12-17T15:44:50.375Z,-2.50
2022-12-17T15:47:16.934Z,-2.56
2022-12-17T15:49:44.836Z,-2.58
2022-12-17T15:52:15.053Z,-2.66
2022-12-17T15:54:42.439Z,-2.64
2022-12-17T15:57:10.877Z,-2.63
2022-12-17T15:59:40.678Z,-2.64
2022-12-17T16:02:07.468Z,-2.68
2022-12-17T16:04:34.215Z,-2.71
2022-12-17T16:07:00.876Z,-2.74
2022-12-17T16:09:27.398Z,-2.76
2022-12-17T16:11:57.243Z,-2.77
2022-12-17T16:14:24.296Z,-2.84
2022-12-17T16:16:51.075Z,-2.85
2022-12-17T16:19:17.962Z,-2.90
2022-12-17T16:21:46.945Z,-2.96
2022-12-17T16:24:13.919Z,-2.97
2022-12-17T16:26:40.472Z,-3.00
2022-12-17T16:29:07.041Z,-3.08
2022-12-17T16:31:33.775Z,-3.12
2022-12-17T16:34:00.417Z,-3.11
2022-12-17T16:36:27.053Z,-3.12
2022-12-17T16:38:54.304Z,-3.20
2022-12-17T16:41:22.095Z,-3.25
2022-12-17T16:43:48.650Z,-3.27
2022-12-17T16:46:27.625Z,-3.26
2022-12-17T16:48:55.056Z,-3.27
2022-12-17T16:51:28.481Z,-3.30
2022-12-17T16:53:56.041Z,-3.33
2022-12-17T16:56:24.050Z,-3.42
2022-12-17T16:58:51.175Z,-3.48
2022-12-17T17:01:21.335Z,-3.48
2022-12-17T17:03:48.557Z,-3.47
2022-12-17T17:06:15.959Z,-3.49
2022-12-17T17:08:42.488Z,-3.50
2022-12-17T17:11:10.632Z,-3.57
2022-12-17T17:13:37.762Z,-3.58
2022-12-17T17:16:05.190Z,-3.59
2022-12-17T17:18:32.049Z,-3.61
2022-12-17T17:21:17.594Z,-3.60
2022-12-17T17:23:44.327Z,-3.59
2022-12-17T17:26:11.152Z,-3.63
2022-12-17T17:28:38.313Z,-3.75
2022-12-17T17:31:07.476Z,-3.76
2022-12-17T17:33:38.855Z,-3.75
2022-12-17T17:36:10.157Z,-3.73
2022-12-17T17:38:37.686Z,-3.68
2022-12-17T17:41:04.966Z,-3.68
2022-12-17T17:43:31.942Z,-3.77
2022-12-17T17:46:08.564Z,-3.81
2022-12-17T17:48:35.792Z,-3.81
2022-12-17T17:51:07.409Z,-3.84
2022-12-17T17:53:34.289Z,-3.85
2022-12-17T17:56:20.611Z,-3.91
2022-12-17T17:58:51.594Z,-3.91
2022-12-17T18:01:19.589Z,-3.95
2022-12-17T18:03:46.392Z,-3.95
2022-12-17T18:06:15.953Z,-3.97
2022-12-17T18:08:42.928Z,-3.95
2022-12-17T18:11:10.646Z,-3.95
2022-12-17T18:13:55.368Z,-3.96
2022-12-17T18:16:24.824Z,-4.00
2022-12-17T18:18:52.691Z,-4.07
2022-12-17T18:21:19.731Z,-4.21
2022-12-17T18:23:46.683Z,-4.28
2022-12-17T18:26:21.431Z,-4.34
2022-12-17T18:28:49.006Z,-4.28
2022-12-17T18:31:17.387Z,-4.29
2022-12-17T18:33:45.769Z,-4.25
2022-12-17T18:36:19.832Z,-4.26
2022-12-17T18:38:46.654Z,-4.31
2022-12-17T18:41:35.840Z,-4.28
2022-12-17T18:44:04.199Z,-4.28
2022-12-17T18:46:31.180Z,-4.32
2022-12-17T18:48:58.973Z,-4.30
2022-12-17T18:51:26.116Z,-4.32
2022-12-17T18:53:55.840Z,-4.39
2022-12-17T18:56:52.235Z,-4.43
2022-12-17T18:59:09.076Z,-4.49
2022-12-17T19:01:36.661Z,-4.57
2022-12-17T19:04:10.797Z,-4.64
2022-12-17T19:06:38.331Z,-4.64
2022-12-17T19:09:05.926Z,-4.61
2022-12-17T19:11:32.917Z,-4.62
2022-12-17T19:13:59.733Z,-4.61
2022-12-17T19:16:28.038Z,-4.63
2022-12-17T19:18:55.957Z,-4.62
2022-12-17T19:21:24.760Z,-4.63
2022-12-17T19:23:55.409Z,-4.60
2022-12-17T19:26:22.494Z,-4.59
2022-12-17T19:28:50.918Z,-4.62
2022-12-17T19:31:19.211Z,-4.66
2022-12-17T19:33:46.366Z,-4.68
2022-12-17T19:36:14.649Z,-4.72
2022-12-17T19:38:41.814Z,-4.71
2022-12-17T19:41:16.553Z,-4.68
2022-12-17T19:43:44.009Z,-4.74
2022-12-17T19:46:14.976Z,-4.76
2022-12-17T19:48:47.968Z,-4.79
2022-12-17T19:51:16.526Z,-4.81
2022-12-17T19:53:43.813Z,-4.84
2022-12-17T19:56:11.727Z,-4.83
2022-12-17T19:58:40.727Z,-4.84
2022-12-17T20:01:08.884Z,-4.87
2022-12-17T20:03:35.971Z,-4.88
2022-12-17T20:06:02.677Z,-4.92
2022-12-17T20:08:29.568Z,-4.92
2022-12-17T20:10:56.208Z,-4.93
2022-12-17T20:13:23.060Z,-4.95
2022-12-17T20:15:58.597Z,-4.98
2022-12-17T20:18:25.209Z,-4.98
2022-12-17T20:20:51.757Z,-5.00
2022-12-17T20:23:21.168Z,-5.02
2022-12-17T20:25:47.682Z,-5.02
2022-12-17T20:28:14.203Z,-5.04
2022-12-17T20:30:41.358Z,-5.05
2022-12-17T20:33:07.923Z,-5.09
2022-12-17T20:35:38.878Z,-5.13
2022-12-17T20:38:05.459Z,-5.15
2022-12-17T20:40:32.040Z,-5.18
2022-12-17T20:42:58.598Z,-5.24
2022-12-17T20:45:25.128Z,-5.22
2022-12-17T20:47:53.236Z,-5.28
2022-12-17T20:50:19.768Z,-5.29
2022-12-17T20:52:46.352Z,-5.34
2022-12-17T20:55:12.873Z,-5.39
2022-12-17T20:57:39.456Z,-5.42
2022-12-17T21:00:06.383Z,-5.44
2022-12-17T21:02:33.077Z,-5.44
2022-12-17T21:05:00.272Z,-5.45
2022-12-17T21:07:26.813Z,-5.46
2022-12-17T21:09:53.580Z,-5.50
2022-12-17T21:12:20.157Z,-5.51
2022-12-17T21:14:46.726Z,-5.52
2022-12-17T21:17:14.891Z,-5.52
2022-12-17T21:19:41.531Z,-5.55
2022-12-17T21:22:08.915Z,-5.54
2022-12-17T21:24:37.232Z,-5.60
2022-12-17T21:27:03.760Z,-5.67
2022-12-17T21:29:30.332Z,-5.65
2022-12-17T21:31:56.917Z,-5.69
2022-12-17T21:34:25.207Z,-5.72
2022-12-17T21:36:52.257Z,-5.69
2022-12-17T21:39:18.964Z,-5.72
2022-12-17T21:42:08.136Z,-5.75
2022-12-17T21:44:35.318Z,-5.73
2022-12-17T21:47:02.388Z,-5.68
2022-12-17T21:49:29.012Z,-5.67
2022-12-17T21:51:59.282Z,-5.68
2022-12-17T21:54:26.090Z,-5.65
2022-12-17T21:56:52.688Z,-5.64
2022-12-17T21:59:19.300Z,-5.66
2022-12-17T22:01:45.950Z,-5.71
2022-12-17T22:04:12.731Z,-5.77
2022-12-17T22:06:43.005Z,-5.81
2022-12-17T22:09:13.393Z,-5.81
2022-12-17T22:12:19.409Z,-5.84
2022-12-17T22:14:46.996Z,-5.84
2022-12-17T22:17:13.557Z,-5.87
2022-12-17T22:19:40.160Z,-5.89
2022-12-17T22:22:06.924Z,-5.91
2022-12-17T22:24:36.022Z,-5.93
2022-12-17T22:27:03.319Z,-5.93
2022-12-17T22:29:48.352Z,-5.96
2022-12-17T22:32:33.212Z,-5.95
2022-12-17T22:36:07.192Z,-5.95
2022-12-17T22:39:52.882Z,-5.92
2022-12-17T22:44:38.322Z,-5.95
2022-12-17T22:44:46.300Z,-5.97
2022-12-17T22:46:19.650Z,-5.99
2022-12-17T22:48:46.703Z,-6.00
2022-12-17T22:51:18.529Z,-6.04
2022-12-17T22:53:54.495Z,-6.09
2022-12-17T22:56:50.635Z,-6.12
2022-12-17T22:59:09.712Z,-6.15
2022-12-17T23:01:36.334Z,-6.16
2022-12-17T23:04:03.852Z,-6.17
2022-12-17T23:06:30.499Z,-6.21
2022-12-17T23:08:57.677Z,-6.19
2022-12-17T23:11:25.515Z,-6.22
2022-12-17T23:13:52.515Z,-6.25
2022-12-17T23:16:19.169Z,-6.23
2022-12-17T23:18:46.489Z,-6.23
2022-12-17T23:21:15.618Z,-6.20
2022-12-17T23:23:42.533Z,-6.22
2022-12-17T23:26:10.448Z,-6.22
2022-12-17T23:28:37.037Z,-6.20
2022-12-17T23:31:11.551Z,-6.22
2022-12-17T23:33:39.030Z,-6.24
2022-12-17T23:36:07.258Z,-6.27
2022-12-17T23:38:34.262Z,-6.29
2022-12-17T23:41:04.732Z,-6.34
2022-12-17T23:43:31.277Z,-6.35
2022-12-17T23:45:57.833Z,-6.39
2022-12-17T23:48:24.371Z,-6.47
2022-12-17T23:50:50.912Z,-6.56
2022-12-17T23:53:17.424Z,-6.57
2022-12-17T23:55:43.919Z,-6.61
2022-12-17T23:58:10.428Z,-6.60
